Time;durP1;ratioP1;P1;durP2;ratioP2;P2;SDS_P1;SDS_P2;PMS_P1;PMS_P2;Temp;Humidity;BMP_temperature;BMP_pressure;BME280_temperature;BME280_humidity;BME280_pressure;Samples;Min_cycle;Max_cycle;Signal;HPM_P1;HPM_P2
2023/10/08 00:01:03;;;;;;;11.52;4.75;;;;;;;18.25;70.75;102193.03;5094049;28;20035;-62
2023/10/08 00:03:29;;;;;;;12.02;5.05;;;;;;;18.19;71.15;102187.66;5094357;28;20377;-61
2023/10/08 00:05:55;;;;;;;12.32;5.20;;;;;;;18.20;71.38;102202.84;5094070;28;20081;-62
2023/10/08 00:08:21;;;;;;;10.60;4.80;;;;;;;18.20;71.55;102197.50;5094081;28;20058;-62
2023/10/08 00:10:47;;;;;;;14.23;5.30;;;;;;;18.19;71.21;102192.13;5092357;28;20036;-61
2023/10/08 00:13:15;;;;;;;12.88;5.07;;;;;;;18.22;71.39;102197.47;5093647;28;20397;-62
2023/10/08 00:15:52;;;;;;;9.10;4.40;;;;;;;18.11;71.22;102193.88;5093532;28;20035;-62
2023/10/08 00:18:24;;;;;;;11.90;4.97;;;;;;;18.08;71.71;102193.91;5093788;28;20427;-62
2023/10/08 00:21:06;;;;;;;12.05;5.25;;;;;;;17.98;72.23;102185.84;5093662;28;20024;-61
2023/10/08 00:23:35;;;;;;;14.32;5.40;;;;;;;17.88;72.61;102200.09;5093397;28;20071;-62
2023/10/08 00:26:06;;;;;;;11.77;4.78;;;;;;;17.91;72.43;102204.56;5093428;28;20035;-61
2023/10/08 00:28:32;;;;;;;18.47;5.57;;;;;;;17.88;72.33;102200.09;5093502;28;20427;-62
2023/10/08 00:31:11;;;;;;;15.10;5.10;;;;;;;17.88;72.53;102202.78;5093456;28;20053;-62
2023/10/08 00:33:36;;;;;;;13.50;5.38;;;;;;;17.80;72.72;102187.59;5093344;28;20524;-62
2023/10/08 00:36:17;;;;;;;14.38;5.07;;;;;;;17.81;73.66;102195.63;5093331;28;20059;-61
2023/10/08 00:38:46;;;;;;;10.15;4.75;;;;;;;17.77;73.11;102208.13;5093442;28;20538;-62
2023/10/08 00:41:15;;;;;;;15.35;5.28;;;;;;;17.76;72.86;102205.41;5093482;28;20035;-61
2023/10/08 00:43:40;;;;;;;11.57;5.13;;;;;;;17.73;73.20;102200.06;5093109;28;20039;-61
2023/10/08 00:48:56;;;;;;;11.55;5.05;;;;;;;17.63;73.02;102200.88;5092963;28;20063;-62
2023/10/08 00:54:05;;;;;;;15.82;5.60;;;;;;;17.58;73.58;102224.03;5093016;28;20115;-63
2023/10/08 00:56:57;;;;;;;9.98;4.85;;;;;;;17.56;73.42;102223.13;5093243;28;20055;-61
2023/10/08 00:59:23;;;;;;;11.02;5.45;;;;;;;17.54;73.15;102209.75;5092917;28;20481;-60
2023/10/08 01:01:59;;;;;;;11.80;5.05;;;;;;;17.51;73.50;102212.41;5093020;28;20017;-63
2023/10/08 01:04:33;;;;;;;13.55;5.10;;;;;;;17.50;74.13;102216.00;5092890;28;20028;-62
2023/10/08 01:07:01;;;;;;;17.92;5.35;;;;;;;17.42;73.62;102207.94;5092845;28;20115;-60
2023/10/08 01:09:37;;;;;;;11.32;5.40;;;;;;;17.35;73.86;102207.94;5091586;28;20035;-62
2023/10/08 01:15:28;;;;;;;14.13;5.35;;;;;;;17.13;74.92;102196.22;5050439;28;20041;-61
2023/10/08 01:20:34;;;;;;;16.67;5.60;;;;;;;17.08;75.17;102205.97;5092677;28;20028;-62
2023/10/08 01:23:10;;;;;;;12.15;5.15;;;;;;;17.09;75.34;102194.44;5092812;28;20039;-62
2023/10/08 01:28:40;;;;;;;12.95;5.38;;;;;;;16.96;75.76;102191.69;5083534;28;20048;-61
2023/10/08 01:31:06;;;;;;;12.75;5.22;;;;;;;16.99;76.08;102189.00;5092616;28;20032;-61
2023/10/08 01:33:37;;;;;;;12.23;5.28;;;;;;;16.90;76.08;102188.06;5093031;28;20051;-62
2023/10/08 01:36:04;;;;;;;10.13;5.05;;;;;;;16.90;76.47;102177.41;5092651;28;20035;-61
2023/10/08 01:38:33;;;;;;;12.45;5.82;;;;;;;16.79;77.04;102180.03;5092878;28;20081;-61
2023/10/08 01:41:03;;;;;;;14.05;5.43;;;;;;;16.58;78.17;102174.50;5092478;28;20032;-62
2023/10/08 01:43:29;;;;;;;12.48;5.72;;;;;;;16.49;78.73;102168.22;5092896;28;20036;-61
2023/10/08 01:45:55;;;;;;;11.73;5.50;;;;;;;16.49;79.48;102173.53;5092642;28;20137;-60
2023/10/08 01:48:27;;;;;;;11.27;5.28;;;;;;;16.50;79.54;102183.31;5092574;28;20028;-62
2023/10/08 01:51:01;;;;;;;;;;;;;;;16.65;77.58;102187.88;5092875;28;20039;-61
2023/10/08 01:53:27;;;;;;;16.20;5.25;;;;;;;16.58;78.86;102182.50;5092605;28;20311;-61
2023/10/08 01:55:53;;;;;;;10.25;5.13;;;;;;;16.58;79.00;102190.50;5091328;28;20016;-61
2023/10/08 01:58:20;;;;;;;12.32;5.28;;;;;;;16.59;79.02;102194.97;5092848;28;20035;-62
2023/10/08 02:00:46;;;;;;;13.38;5.70;;;;;;;16.60;78.81;102204.75;5092610;28;20028;-62
2023/10/08 02:03:17;;;;;;;15.45;5.60;;;;;;;16.65;79.13;102206.56;5092713;28;20045;-61
2023/10/08 02:05:43;;;;;;;11.52;5.65;;;;;;;16.62;78.97;102214.56;5092645;28;20032;-62
2023/10/08 02:08:11;;;;;;;12.93;5.20;;;;;;;16.67;79.60;102209.25;5092714;28;20378;-62
2023/10/08 02:10:42;;;;;;;12.18;5.25;;;;;;;16.60;79.16;102215.41;5092321;28;20024;-62
2023/10/08 02:13:09;;;;;;;13.15;5.38;;;;;;;16.58;79.34;102212.75;5091243;28;20469;-62
2023/10/08 02:15:41;;;;;;;13.13;5.55;;;;;;;16.63;79.36;102218.13;5092438;28;20410;-61
2023/10/08 02:18:06;;;;;;;15.40;5.43;;;;;;;16.60;79.35;102204.75;5092373;28;20024;-61
2023/10/08 02:20:32;;;;;;;12.65;5.50;;;;;;;16.59;79.53;102210.97;5093511;28;20032;-61
2023/10/08 02:22:59;;;;;;;10.77;5.80;;;;;;;16.49;79.70;102202.91;5095950;28;20066;-61
2023/10/08 02:25:25;;;;;;;13.63;5.80;;;;;;;16.48;79.89;102208.19;5095740;28;20024;-61
2023/10/08 02:27:51;;;;;;;10.80;5.88;;;;;;;16.41;80.06;102204.59;5095900;28;20035;-62
2023/10/08 02:30:17;;;;;;;12.50;5.97;;;;;;;16.47;80.15;102209.97;5095646;28;20469;-62
2023/10/08 02:32:43;;;;;;;15.32;5.60;;;;;;;16.48;79.98;102218.88;5095800;28;20115;-62
2023/10/08 02:35:11;;;;;;;12.18;5.50;;;;;;;16.45;80.30;102218.88;5095854;28;20107;-61
2023/10/08 02:37:40;;;;;;;11.70;5.43;;;;;;;16.40;80.33;102215.25;5095993;28;20431;-62
2023/10/08 02:40:30;;;;;;;14.20;5.75;;;;;;;16.42;80.38;102216.16;5095461;28;20123;-60
2023/10/08 02:43:00;;;;;;;17.02;5.93;;;;;;;16.35;80.18;102207.19;5095861;28;20106;-62
2023/10/08 02:45:29;;;;;;;16.27;5.63;;;;;;;16.37;80.74;102216.13;5095393;28;20085;-62
2023/10/08 02:47:55;;;;;;;11.77;5.53;;;;;;;16.39;80.57;102230.34;5095313;28;20031;-62
2023/10/08 02:50:22;;;;;;;14.00;5.50;;;;;;;16.37;80.51;102236.59;5094863;28;20040;-62
2023/10/08 02:52:51;;;;;;;12.05;5.97;;;;;;;16.34;80.58;102237.44;5095531;28;20122;-61
2023/10/08 02:55:34;;;;;;;17.83;5.90;;;;;;;16.39;80.51;102240.13;5094975;28;20390;-61
2023/10/08 02:58:02;;;;;;;16.42;5.80;;;;;;;16.47;80.36;102252.66;5095169;28;20474;-61
2023/10/08 03:00:34;;;;;;;15.55;6.38;;;;;;;16.48;80.24;102237.56;5094990;28;20030;-61
2023/10/08 03:03:02;;;;;;;13.75;5.68;;;;;;;16.39;80.41;102227.69;5094996;28;20035;-61
2023/10/08 03:05:35;;;;;;;11.88;5.72;;;;;;;16.37;80.51;102231.25;5095282;28;20024;-62
2023/10/08 03:08:01;;;;;;;12.23;5.72;;;;;;;16.40;80.55;102240.19;5095185;28;20097;-61
2023/10/08 03:10:33;;;;;;;13.07;5.80;;;;;;;16.43;80.79;102232.19;5095161;28;20036;-62
2023/10/08 03:13:05;;;;;;;15.40;6.00;;;;;;;16.48;80.41;102237.56;5095089;28;20024;-61
2023/10/08 03:15:37;;;;;;;13.68;5.93;;;;;;;16.44;80.40;102227.72;5094959;28;20032;-61
2023/10/08 03:18:09;;;;;;;13.20;5.55;;;;;;;16.42;80.87;102237.50;5094853;28;20040;-62
2023/10/08 03:20:38;;;;;;;10.88;5.50;;;;;;;16.43;80.41;102242.84;5094626;28;20496;-60
2023/10/08 03:25:56;;;;;;;12.30;5.78;;;;;;;16.38;81.00;102244.59;5094701;28;20051;-62
2023/10/08 03:28:24;;;;;;;14.95;5.93;;;;;;;16.35;81.09;102249.88;5094553;28;20032;-61
2023/10/08 03:31:02;;;;;;;15.82;5.97;;;;;;;16.27;81.46;102255.16;5094516;28;20497;-62
2023/10/08 03:33:29;;;;;;;12.13;5.80;;;;;;;16.30;81.36;102256.97;5093534;28;20036;-61
2023/10/08 03:35:55;;;;;;;13.95;6.05;;;;;;;16.21;81.92;102243.53;5094516;28;20028;-62
2023/10/08 03:38:28;;;;;;;12.82;6.25;;;;;;;16.13;82.04;102230.13;5094488;28;20020;-61
2023/10/08 03:40:58;;;;;;;12.48;5.63;;;;;;;16.13;82.57;102240.78;5094537;28;20059;-61
2023/10/08 03:43:33;;;;;;;12.60;5.75;;;;;;;16.13;83.11;102237.22;5094666;28;20028;-62
2023/10/08 03:46:05;;;;;;;12.77;5.75;;;;;;;16.14;83.24;102249.69;5094352;28;20028;-61
2023/10/08 03:48:37;;;;;;;15.02;6.20;;;;;;;16.16;83.15;102256.81;5094170;28;20043;-62
2023/10/08 03:51:11;;;;;;;14.73;5.72;;;;;;;16.15;83.12;102252.38;5093103;28;20059;-61
2023/10/08 03:53:43;;;;;;;16.02;6.20;;;;;;;16.11;83.61;102252.34;5094553;28;20055;-61
2023/10/08 03:56:19;;;;;;;14.40;6.03;;;;;;;16.08;83.80;102257.63;5094130;28;20398;-61
2023/10/08 03:58:46;;;;;;;15.45;5.78;;;;;;;16.09;83.75;102246.97;5094168;28;20032;-61
2023/10/08 04:01:18;;;;;;;17.88;5.88;;;;;;;16.05;83.85;102258.47;5093946;28;20039;-62
2023/10/08 04:03:59;;;;;;;15.67;6.20;;;;;;;16.06;83.81;102262.94;5094277;28;20036;-62
2023/10/08 04:06:30;;;;;;;18.50;6.38;;;;;;;16.08;84.33;102244.28;5094191;28;20274;-61
2023/10/08 04:11:56;;;;;;;17.38;6.70;;;;;;;15.92;85.13;102245.88;5093830;28;20515;-61
2023/10/08 04:14:24;;;;;;;16.23;5.93;;;;;;;15.93;84.50;102245.94;5093894;28;20028;-62
2023/10/08 04:16:53;;;;;;;13.82;6.15;;;;;;;15.98;84.51;102253.97;5093685;28;20449;-60
2023/10/08 04:19:21;;;;;;;15.63;5.93;;;;;;;16.02;84.30;102269.13;5093505;28;20058;-61
2023/10/08 04:21:53;;;;;;;15.02;6.00;;;;;;;16.03;84.18;102270.91;5093583;28;20040;-62
2023/10/08 04:24:20;;;;;;;14.00;6.10;;;;;;;16.05;83.97;102266.47;5093821;28;20039;-61
2023/10/08 04:26:46;;;;;;;14.07;6.10;;;;;;;15.99;84.12;102264.66;5093483;28;20094;-61
2023/10/08 04:29:16;;;;;;;18.23;6.68;;;;;;;15.94;84.22;102269.03;5093742;28;20028;-62
2023/10/08 04:31:46;;;;;;;13.80;5.93;;;;;;;15.92;84.28;102265.44;5093656;28;20036;-62
2023/10/08 04:34:15;;;;;;;11.85;5.95;;;;;;;15.95;84.29;102265.47;5093384;28;20035;-62
2023/10/08 04:36:53;;;;;;;11.80;5.80;;;;;;;15.97;84.34;102274.41;5093367;28;20426;-61
2023/10/08 04:39:23;;;;;;;16.05;5.95;;;;;;;15.97;84.39;102276.16;5093483;28;20039;-61
2023/10/08 04:41:53;;;;;;;12.52;5.57;;;;;;;16.02;84.22;102287.78;5092138;28;20032;-62
2023/10/08 04:44:21;;;;;;;14.88;5.88;;;;;;;16.07;84.00;102293.19;5092896;28;20474;-62
2023/10/08 04:46:47;;;;;;;15.85;6.15;;;;;;;16.08;83.72;102294.97;5093264;28;20097;-61
2023/10/08 04:49:27;;;;;;;15.35;5.93;;;;;;;16.09;83.79;102305.63;5092815;28;20513;-61
2023/10/08 04:51:59;;;;;;;15.27;6.18;;;;;;;16.17;83.44;102306.63;5092854;28;20450;-62
2023/10/08 04:54:31;;;;;;;14.93;5.80;;;;;;;16.18;83.33;102302.16;5093052;28;20406;-61
2023/10/08 04:57:01;;;;;;;16.63;5.88;;;;;;;16.21;83.64;102300.44;5093366;28;20016;-61
2023/10/08 04:59:32;;;;;;;13.55;6.03;;;;;;;16.16;83.48;102303.94;5092998;28;20103;-63
2023/10/08 05:07:21;;;;;;;;;;;;;;;16.33;82.40;102307.69;5093456;28;20054;-61
2023/10/08 05:10:11;;;;;;;15.32;6.03;;;;;;;16.25;82.85;102307.59;5093182;28;19939;-61
2023/10/08 05:12:37;;;;;;;13.02;6.30;;;;;;;16.23;83.21;102317.38;5092951;28;20047;-61
2023/10/08 05:20:59;;;;;;;16.13;6.75;;;;;;;16.19;83.35;102311.97;5061439;28;20036;-62
2023/10/08 05:28:26;;;;;;;15.48;6.28;;;;;;;15.89;85.59;102312.53;5093249;28;20035;-61
2023/10/08 05:31:11;;;;;;;16.90;6.40;;;;;;;15.85;85.55;102326.69;5092628;28;20079;-61
2023/10/08 05:36:50;;;;;;;20.50;6.95;;;;;;;15.75;86.31;102326.53;5092054;28;20078;-61
2023/10/08 05:40:11;;;;;;;13.60;6.45;;;;;;;15.85;86.09;102334.69;5092648;28;20040;-62
2023/10/08 05:42:31;;;;;;;12.70;6.47;;;;;;;15.85;85.89;102338.25;5086829;28;20048;-62
2023/10/08 05:50:38;;;;;;;14.15;6.60;;;;;;;15.54;87.40;102336.88;5092252;28;20052;-62
2023/10/08 05:55:26;;;;;;;16.63;6.32;;;;;;;15.34;87.93;102309.06;5093184;28;20446;-62
2023/10/08 05:58:12;;;;;;;13.70;6.15;;;;;;;15.23;88.95;102296.47;5096196;28;20019;-62
2023/10/08 06:00:46;;;;;;;16.55;6.18;;;;;;;15.15;89.11;102284.81;5096297;28;20089;-60
2023/10/08 06:03:31;;;;;;;14.98;5.90;;;;;;;15.08;89.90;102277.63;5096217;28;20042;-62
2023/10/08 06:06:22;;;;;;;16.25;6.30;;;;;;;15.01;90.25;102283.72;5096109;28;20466;-61
2023/10/08 06:08:51;;;;;;;15.90;5.90;;;;;;;15.09;90.06;102299.81;5095769;28;20170;-61
2023/10/08 06:14:13;;;;;;;13.60;5.85;;;;;;;15.29;89.30;102309.00;5096143;28;20039;-61
2023/10/08 06:16:43;;;;;;;14.30;6.03;;;;;;;15.32;88.80;102326.78;5095915;28;20028;-61
2023/10/08 06:19:09;;;;;;;15.23;6.28;;;;;;;15.39;88.54;102326.91;5095895;28;20110;-61
2023/10/08 06:21:40;;;;;;;15.85;6.95;;;;;;;15.47;88.28;102329.69;5095663;28;20036;-62
2023/10/08 06:24:09;;;;;;;13.98;6.32;;;;;;;15.49;88.18;102328.81;5095952;28;20051;-61
2023/10/08 06:26:48;;;;;;;16.10;6.25;;;;;;;15.53;88.06;102335.09;5095723;28;20028;-60
2023/10/08 06:29:27;;;;;;;15.70;5.90;;;;;;;15.52;87.78;102333.31;5095805;28;20063;-63
2023/10/08 06:31:55;;;;;;;17.27;6.70;;;;;;;15.63;87.63;102345.03;5095544;28;20036;-62
2023/10/08 06:34:22;;;;;;;15.38;6.68;;;;;;;15.69;87.18;102349.56;5095420;28;20101;-61
2023/10/08 06:36:54;;;;;;;15.50;6.32;;;;;;;15.73;87.00;102340.75;5095442;28;20545;-61
2023/10/08 06:39:25;;;;;;;14.98;6.45;;;;;;;15.77;86.94;102338.13;5095471;28;20028;-61
2023/10/08 06:41:54;;;;;;;16.30;6.70;;;;;;;15.82;86.85;102337.31;5095324;28;20046;-62
2023/10/08 06:44:19;;;;;;;12.65;6.28;;;;;;;15.82;87.75;102334.63;5095623;28;20074;-62
2023/10/08 06:46:45;;;;;;;13.70;6.75;;;;;;;15.85;87.49;102327.56;5093778;28;20032;-62
2023/10/08 06:49:11;;;;;;;14.70;6.57;;;;;;;15.75;87.71;102329.19;5094965;28;20048;-62
2023/10/08 06:51:43;;;;;;;15.50;6.95;;;;;;;15.78;88.22;102339.91;5094983;28;20543;-61
2023/10/08 06:54:10;;;;;;;17.73;7.10;;;;;;;15.86;87.75;102361.34;5095451;28;20043;-60
2023/10/08 06:56:36;;;;;;;17.50;7.28;;;;;;;15.97;87.49;102354.41;5093715;28;20036;-62
2023/10/08 06:59:03;;;;;;;20.35;7.07;;;;;;;16.07;87.12;102363.41;5095076;28;20576;-61
2023/10/08 07:01:38;;;;;;;12.05;6.53;;;;;;;16.17;86.39;102367.94;5094880;28;20039;-61
2023/10/08 07:04:11;;;;;;;14.80;6.45;;;;;;;16.30;85.92;102379.66;5095342;28;20028;-61
2023/10/08 07:06:39;;;;;;;15.82;6.80;;;;;;;16.33;85.88;102387.72;5094665;28;20035;-60
2023/10/08 07:09:05;;;;;;;15.45;7.10;;;;;;;16.39;85.81;102382.44;5094682;28;20066;-60
2023/10/08 07:11:38;;;;;;;15.57;7.32;;;;;;;16.38;85.94;102377.97;5094835;28;20101;-61
2023/10/08 07:14:04;;;;;;;;;;;;;;;16.47;85.39;102378.06;5095457;28;20036;-62
2023/10/08 07:16:30;;;;;;;17.88;7.55;;;;;;;16.39;85.86;102381.53;5094999;28;20362;-61
2023/10/08 07:19:01;;;;;;;18.95;8.55;;;;;;;16.37;85.95;102389.53;5094534;28;20032;-61
2023/10/08 07:21:38;;;;;;;19.15;8.02;;;;;;;16.38;85.49;102383.31;5093323;28;20074;-61
2023/10/08 07:24:09;;;;;;;16.10;8.20;;;;;;;16.41;85.56;102382.47;5094711;28;20408;-62
2023/10/08 07:26:39;;;;;;;16.25;7.82;;;;;;;16.50;85.69;102387.91;5093199;28;20406;-61
2023/10/08 07:29:08;;;;;;;16.60;8.40;;;;;;;16.51;86.20;102381.69;5094472;28;20401;-61
2023/10/08 07:31:36;;;;;;;16.27;8.05;;;;;;;16.63;85.71;102379.16;5094535;28;20046;-61
2023/10/08 07:34:18;;;;;;;20.25;8.70;;;;;;;16.71;85.47;102387.25;5094323;28;20017;-62
2023/10/08 07:36:49;;;;;;;11.35;6.60;;;;;;;16.83;85.26;102395.41;5093713;28;20032;-62
2023/10/08 07:39:33;;;;;;;18.45;8.23;;;;;;;16.91;84.83;102393.69;5094223;28;20470;-62
2023/10/08 07:42:05;;;;;;;16.98;8.35;;;;;;;17.06;84.23;102392.94;5094338;28;20024;-61
2023/10/08 07:44:31;;;;;;;16.67;8.15;;;;;;;17.07;83.90;102397.38;5094325;28;20407;-61
2023/10/08 07:46:57;;;;;;;18.15;8.07;;;;;;;17.08;84.04;102398.28;5094486;28;20028;-62
2023/10/08 07:49:29;;;;;;;20.35;8.20;;;;;;;17.11;83.89;102396.53;5093713;28;20051;-60
2023/10/08 07:51:57;;;;;;;20.92;8.30;;;;;;;17.11;83.90;102401.00;5093973;28;20032;-61
2023/10/08 07:54:34;;;;;;;18.55;8.55;;;;;;;17.14;83.65;102401.03;5094204;28;20109;-60
2023/10/08 07:57:09;;;;;;;15.52;8.50;;;;;;;17.20;83.68;102403.72;5074049;28;20036;-61
2023/10/08 07:59:41;;;;;;;20.52;9.30;;;;;;;17.24;83.91;102401.09;5073734;28;20051;-61
2023/10/08 08:02:11;;;;;;;18.02;9.35;;;;;;;17.25;83.97;102402.88;5074076;28;20059;-62
2023/10/08 08:04:39;;;;;;;23.70;9.27;;;;;;;17.26;83.97;102412.72;5073578;28;20029;-60
2023/10/08 08:07:06;;;;;;;19.00;9.43;;;;;;;17.33;84.41;102415.41;5073734;28;20047;-61
2023/10/08 08:09:37;;;;;;;21.38;9.13;;;;;;;17.30;84.53;102424.31;5073604;28;20028;-61
2023/10/08 08:12:11;;;;;;;18.25;9.30;;;;;;;17.26;85.21;102436.75;5073614;28;20025;-62
2023/10/08 08:14:40;;;;;;;16.60;8.82;;;;;;;17.21;85.91;102450.94;5073483;28;20045;-61
2023/10/08 08:17:13;;;;;;;16.85;9.23;;;;;;;17.18;86.61;102437.56;5073314;28;20055;-61
2023/10/08 08:19:44;;;;;;;20.08;8.77;;;;;;;17.20;86.40;102443.81;5072921;28;20086;-61
2023/10/08 08:22:15;;;;;;;20.52;9.35;;;;;;;17.17;86.65;102444.69;5073260;28;20052;-61
2023/10/08 08:24:44;;;;;;;19.30;8.95;;;;;;;17.19;86.60;102445.59;5073225;28;20085;-61
2023/10/08 08:27:23;;;;;;;22.40;9.45;;;;;;;17.21;86.57;102451.81;5073371;28;20068;-61
2023/10/08 08:29:55;;;;;;;18.27;9.32;;;;;;;17.27;86.71;102459.00;5073228;28;20040;-60
2023/10/08 08:32:21;;;;;;;21.45;9.45;;;;;;;17.38;87.35;102457.31;5072840;28;20033;-61
2023/10/08 08:34:50;;;;;;;22.25;8.80;;;;;;;17.45;87.08;102458.28;5072984;28;20025;-61
2023/10/08 08:37:16;;;;;;;20.20;9.43;;;;;;;17.57;87.13;102468.19;5072639;28;20035;-61
2023/10/08 08:39:42;;;;;;;29.80;10.27;;;;;;;17.69;86.47;102466.50;5093174;28;20046;-60
2023/10/08 08:42:08;;;;;;;27.75;10.05;;;;;;;17.83;85.32;102471.06;5103035;28;20458;-60
2023/10/08 08:44:45;;;;;;;38.05;11.13;;;;;;;17.97;85.96;102478.28;5101435;28;20024;-61
2023/10/08 08:47:17;;;;;;;31.85;10.95;;;;;;;18.18;84.88;102469.50;5103786;28;20472;-61
2023/10/08 08:49:45;;;;;;;28.20;10.48;;;;;;;18.51;83.86;102470.53;5099542;28;20036;-61
2023/10/08 08:52:11;;;;;;;31.77;10.93;;;;;;;18.91;83.71;102468.00;5101663;28;20032;-60
2023/10/08 08:54:36;;;;;;;32.63;11.10;;;;;;;19.30;81.64;102471.63;5102151;28;20110;-61
2023/10/08 08:57:04;;;;;;;28.85;10.80;;;;;;;19.63;79.63;102477.03;5103419;28;20108;-61
2023/10/08 08:59:30;;;;;;;29.90;10.95;;;;;;;19.90;78.08;102467.16;5102774;28;20028;-61
2023/10/08 09:02:03;;;;;;;31.98;10.48;;;;;;;20.29;76.86;102474.19;5101288;28;20074;-61
2023/10/08 09:04:30;;;;;;;25.35;10.82;;;;;;;20.50;75.44;102466.09;5096817;28;20039;-61
2023/10/08 09:06:57;;;;;;;27.02;10.93;;;;;;;20.79;73.81;102477.59;5092815;28;20024;-62
2023/10/08 09:09:23;;;;;;;27.58;12.73;;;;;;;20.99;72.70;102479.28;5092684;28;20024;-63
2023/10/08 09:11:51;;;;;;;26.35;10.98;;;;;;;21.28;72.35;102478.16;5092526;28;20032;-62
2023/10/08 09:14:21;;;;;;;25.42;10.55;;;;;;;21.47;72.38;102476.25;5092593;28;20024;-61
2023/10/08 09:16:47;;;;;;;24.67;10.70;;;;;;;21.51;70.63;102475.34;5092534;28;20028;-62
2023/10/08 09:19:18;;;;;;;26.83;10.77;;;;;;;21.68;70.58;102484.13;5092496;28;20481;-62
2023/10/08 09:22:04;;;;;;;21.13;10.88;;;;;;;21.82;69.95;102486.69;5092650;28;20090;-62
2023/10/08 09:24:38;;;;;;;29.23;11.32;;;;;;;21.77;69.83;102482.28;5092126;28;20465;-62
2023/10/08 09:27:04;;;;;;;25.73;11.27;;;;;;;21.69;69.16;102490.41;5092914;28;20028;-62
2023/10/08 09:29:30;;;;;;;25.27;12.02;;;;;;;21.64;69.68;102489.56;5093692;28;20024;-62
2023/10/08 09:31:57;;;;;;;30.33;13.15;;;;;;;21.57;70.89;102490.50;5095649;28;20086;-62
2023/10/08 09:34:30;;;;;;;27.95;12.30;;;;;;;21.44;70.65;102487.91;5096966;28;20024;-61
2023/10/08 09:36:57;;;;;;;33.72;13.57;;;;;;;21.29;72.13;102493.41;5096526;28;20485;-62
2023/10/08 09:39:23;;;;;;;25.35;12.82;;;;;;;21.31;72.66;102499.66;5096954;28;20488;-60
2023/10/08 09:41:54;;;;;;;35.00;13.82;;;;;;;21.24;73.02;102496.13;5096601;28;20413;-61
2023/10/08 09:44:20;;;;;;;26.88;13.05;;;;;;;21.22;73.36;102492.53;5096831;28;20373;-62
2023/10/08 09:46:52;;;;;;;30.85;13.40;;;;;;;21.21;73.11;102492.56;5096385;28;20032;-63
2023/10/08 09:49:23;;;;;;;29.42;13.13;;;;;;;21.09;73.13;102492.66;5096124;28;20048;-62
2023/10/08 09:51:49;;;;;;;23.98;12.32;;;;;;;21.01;73.93;102484.63;5096529;28;20445;-62
2023/10/08 09:54:25;;;;;;;31.73;13.27;;;;;;;20.93;74.07;102484.66;5096317;28;20055;-62
2023/10/08 09:56:52;;;;;;;26.95;13.55;;;;;;;20.78;74.54;102482.09;5094932;28;20465;-61
2023/10/08 09:59:19;;;;;;;30.20;13.13;;;;;;;20.74;75.58;102478.53;5095116;28;20024;-61
2023/10/08 10:01:47;;;;;;;33.13;13.98;;;;;;;20.71;75.86;102472.25;5096360;28;20055;-61
2023/10/08 10:04:23;;;;;;;30.25;12.63;;;;;;;20.62;75.59;102470.53;5095102;28;20419;-62
2023/10/08 10:06:50;;;;;;;32.90;12.85;;;;;;;20.50;76.37;102466.09;5094978;28;20039;-61
2023/10/08 10:09:24;;;;;;;28.55;12.43;;;;;;;20.40;76.43;102464.31;5095960;28;20028;-61
2023/10/08 10:11:50;;;;;;;27.73;11.43;;;;;;;20.34;76.67;102458.06;5095865;28;20551;-62
2023/10/08 10:14:17;;;;;;;29.10;12.27;;;;;;;20.32;76.80;102462.56;5095847;28;20024;-61
2023/10/08 10:16:47;;;;;;;31.02;11.85;;;;;;;20.33;77.46;102467.03;5095920;28;20030;-62
2023/10/08 10:19:20;;;;;;;28.20;11.80;;;;;;;20.28;78.40;102480.47;5095746;28;20066;-62
2023/10/08 10:21:47;;;;;;;34.42;13.80;;;;;;;20.18;77.72;102482.31;5095828;28;20063;-61
2023/10/08 10:24:27;;;;;;;30.27;11.65;;;;;;;20.11;78.25;102488.56;5095651;28;20028;-61
2023/10/08 10:27:10;;;;;;;25.75;10.77;;;;;;;20.01;78.80;102482.34;5095692;28;20023;-62
2023/10/08 10:29:36;;;;;;;29.38;11.48;;;;;;;19.89;78.71;102474.31;5095501;28;20443;-60
2023/10/08 10:32:02;;;;;;;24.45;11.68;;;;;;;19.73;79.79;102464.50;5095843;28;20028;-63
2023/10/08 10:34:27;;;;;;;27.90;11.65;;;;;;;19.74;80.85;102461.84;5095420;28;20462;-62
2023/10/08 10:37:19;;;;;;;38.85;12.52;;;;;;;19.73;80.71;102468.06;5095356;28;20024;-63
2023/10/08 10:40:10;;;;;;;32.58;12.00;;;;;;;19.66;80.26;102469.00;5095617;28;20032;-62
2023/10/08 10:42:38;;;;;;;30.27;11.80;;;;;;;19.57;81.02;102465.38;5094903;28;20122;-61
2023/10/08 10:45:35;;;;;;;33.05;12.02;;;;;;;19.59;81.11;102480.56;5095217;28;20481;-62
2023/10/08 10:48:00;;;;;;;29.27;12.05;;;;;;;19.66;80.67;102486.88;5095140;28;20044;-62
2023/10/08 10:50:31;;;;;;;33.65;12.27;;;;;;;19.61;80.83;102483.28;5094808;28;20059;-61
2023/10/08 10:52:57;;;;;;;29.13;11.07;;;;;;;19.68;80.35;102488.66;5095129;28;20042;-61
2023/10/08 10:55:31;;;;;;;25.75;11.38;;;;;;;19.69;80.14;102479.69;5093833;28;20028;-62
2023/10/08 10:58:24;;;;;;;28.55;11.32;;;;;;;19.63;79.85;102487.75;5094909;28;20512;-61
2023/10/08 11:03:23;;;;;;;22.67;10.75;;;;;;;19.62;79.92;102483.31;5094750;28;20124;-62
2023/10/08 11:05:54;;;;;;;18.65;10.45;;;;;;;19.47;80.71;102486.84;5095229;28;20115;-62
2023/10/08 11:08:23;;;;;;;16.90;9.65;;;;;;;19.40;80.36;102487.75;5094683;28;20371;-61
2023/10/08 11:10:51;;;;;;;16.75;9.77;;;;;;;19.37;81.16;102494.88;5094602;28;20032;-61
2023/10/08 11:13:21;;;;;;;19.27;9.77;;;;;;;19.39;81.76;102496.66;5094830;28;20031;-62
2023/10/08 11:15:51;;;;;;;18.92;9.65;;;;;;;19.41;81.56;102492.19;5094718;28;20032;-62
2023/10/08 11:18:22;;;;;;;19.05;9.13;;;;;;;19.38;80.64;102491.31;5094589;28;20378;-62
2023/10/08 11:20:54;;;;;;;20.08;9.52;;;;;;;19.38;80.99;102486.84;5094857;28;20056;-61
2023/10/08 11:23:46;;;;;;;17.40;8.93;;;;;;;19.47;80.62;102493.97;5094486;28;20430;-61
2023/10/08 11:26:12;;;;;;;;;;;;;;;19.51;80.49;102493.97;5093686;28;20028;-62
2023/10/08 11:28:42;;;;;;;18.33;8.52;;;;;;;19.31;80.68;102493.06;5094707;28;19919;-63
2023/10/08 11:31:10;;;;;;;15.70;8.00;;;;;;;19.31;81.07;102485.03;5094521;28;20024;-61
2023/10/08 11:33:36;;;;;;;18.85;8.35;;;;;;;19.38;81.47;102477.91;5094262;28;20046;-62
2023/10/08 11:36:25;;;;;;;15.90;8.75;;;;;;;19.45;80.12;102477.91;5094622;28;20016;-62
2023/10/08 11:38:53;;;;;;;15.57;8.18;;;;;;;19.32;80.31;102473.44;5107865;28;20038;-61
2023/10/08 11:41:22;;;;;;;15.52;9.23;;;;;;;19.27;80.02;102475.19;5113454;28;20043;-62
2023/10/08 11:43:58;;;;;;;16.15;8.27;;;;;;;19.28;80.62;102474.31;5114490;28;20028;-62
2023/10/08 11:46:32;;;;;;;17.60;8.05;;;;;;;19.13;80.53;102475.19;5100748;28;20024;-62
2023/10/08 11:49:03;;;;;;;17.77;8.90;;;;;;;19.04;81.28;102467.13;5101748;28;20031;-61
2023/10/08 11:51:33;;;;;;;20.65;9.68;;;;;;;19.15;80.77;102473.41;5104317;28;20152;-62
2023/10/08 11:54:00;;;;;;;20.50;9.50;;;;;;;19.18;80.94;102468.03;5102670;28;20053;-62
2023/10/08 11:56:27;;;;;;;20.17;9.15;;;;;;;19.17;80.66;102470.72;5102823;28;20095;-61
2023/10/08 11:58:56;;;;;;;19.23;9.38;;;;;;;19.26;80.29;102466.25;5108271;28;20028;-62
2023/10/08 12:01:23;;;;;;;17.90;9.20;;;;;;;19.24;80.86;102461.81;5102869;28;20024;-62
2023/10/08 12:03:49;;;;;;;18.33;9.35;;;;;;;19.21;80.73;102453.75;5094046;28;20023;-61
2023/10/08 12:06:18;;;;;;;18.42;9.02;;;;;;;19.23;80.92;102452.88;5093610;28;20131;-62
2023/10/08 12:08:46;;;;;;;18.38;8.05;;;;;;;19.31;81.00;102446.63;5093946;28;20032;-62
2023/10/08 12:11:12;;;;;;;15.98;7.95;;;;;;;19.21;80.72;102448.41;5093596;28;20024;-62
2023/10/08 12:13:44;;;;;;;17.25;7.95;;;;;;;19.29;81.19;102438.59;5093562;28;20028;-62
2023/10/08 12:16:18;;;;;;;21.17;8.85;;;;;;;19.34;81.05;102446.63;5093689;28;20085;-62
2023/10/08 12:18:43;;;;;;;17.60;9.07;;;;;;;19.37;80.79;102439.47;5093877;28;20043;-62
2023/10/08 12:21:15;;;;;;;21.20;8.80;;;;;;;19.38;80.41;102438.56;5093315;28;20024;-61
2023/10/08 12:23:43;;;;;;;19.02;8.98;;;;;;;19.46;80.02;102433.22;5093744;28;20032;-61
2023/10/08 12:26:09;;;;;;;17.25;8.18;;;;;;;19.49;79.93;102431.44;5093581;28;20032;-61